CST,Max TemperatureF,Mean TemperatureF,Min TemperatureF,Max Dew PointF,MeanDew PointF,Min DewpointF,Max Humidity, Mean Humidity, Min Humidity, Max Sea Level PressureIn, Mean Sea Level PressureIn, Min Sea Level PressureIn, Max VisibilityMiles, Mean VisibilityMiles, Min VisibilityMiles, Max Wind SpeedMPH, Mean Wind SpeedMPH, Max Gust SpeedMPH,PrecipitationIn, CloudCover, Events, WindDirDegrees
2014-1-1,46,38,30,35,28,24,78,66,53,30.30,30.15,29.99,10,10,6,16,7,20,0.05,2,Rain,182
2014-1-2,39,27,15,36,20,9,92,80,67,30.46,30.12,29.91,10,6,1,24,13,37,0.05,7,Rain-Snow,323
2014-1-3,27,19,10,12,9,5,84,67,50,30.58,30.44,30.23,10,10,10,15,7,19,0.00,0,,184
2014-1-4,44,34,23,24,16,10,60,47,33,30.22,30.11,30.01,10,10,10,24,12,34,T,3,,182
2014-1-5,42,26,10,37,23,-1,92,72,51,30.19,29.86,29.60,10,4,1,32,13,46,0.73,8,Rain-Snow,337
2014-1-6,10,4,-3,-4,-12,-16,65,56,47,30.58,30.46,30.25,10,10,6,26,15,40,T,4,,285
2014-1-7,20,8,-4,6,-2,-11,68,59,49,30.58,30.48,30.38,10,10,10,17,8,22,0.00,2,,198
2014-1-8,34,27,19,26,17,7,72,62,51,30.48,30.44,30.39,10,10,10,17,7,23,0.00,5,,196
2014-1-9,38,35,31,30,27,24,85,72,59,30.48,30.38,30.24,10,10,6,10,5,15,0.06,8,Rain-Snow,112
2014-1-10,50,43,35,47,41,30,93,85,76,30.23,29.95,29.65,10,7,2,15,6,21,0.60,8,Rain,143
2014-1-11,51,43,34,48,39,29,93,82,70,29.94,29.70,29.56,10,10,9,21,10,26,0.06,6,Rain,238
2014-1-12,53,40,27,34,30,26,85,65,45,30.09,29.97,29.86,10,10,9,16,9,22,0.00,0,,195
2014-1-13,52,46,39,47,41,31,93,70,46,29.88,29.78,29.71,10,10,7,20,10,29,0.00,5,,214
2014-1-14,55,41,26,36,29,17,92,68,44,30.06,29.92,29.81,10,8,2,23,7,28,T,2,Rain,280
2014-1-15,32,26,20,22,17,13,77,62,47,30.19,30.14,30.06,10,8,2,20,7,26,T,6,Snow,297
2014-1-16,41,31,21,30,22,15,77,64,50,30.08,29.88,29.76,10,9,2,18,9,24,0.01,7,Snow,197
2014-1-17,36,27,18,27,14,5,78,67,56,30.17,30.01,29.80,10,7,0,24,12,31,0.01,8,Snow,283
2014-1-18,38,27,15,33,21,10,80,62,44,30.12,29.92,29.78,10,10,2,22,8,27,0.05,6,Rain-Snow,211
2014-1-19,42,34,26,32,24,18,89,69,49,30.12,29.98,29.84,10,10,10,29,13,37,T,4,,244
2014-1-20,52,42,31,33,29,25,76,60,44,29.96,29.90,29.82,10,10,10,17,6,22,T,2,Rain,292
2014-1-21,37,24,11,32,17,3,89,70,51,30.31,30.08,29.84,10,6,1,29,11,41,0.04,6,Rain-Snow,337
2014-1-22,26,18,9,16,11,3,80,71,62,30.29,30.18,30.09,10,9,2,22,7,31,T,6,Snow,238
2014-1-23,21,13,5,9,-2,-7,76,64,51,30.76,30.61,30.27,10,10,10,22,10,29,0.00,1,,313
2014-1-24,28,16,3,6,2,-3,79,57,34,30.75,30.39,29.93,10,10,10,29,14,37,0.00,1,,206
2014-1-25,46,35,24,22,13,3,75,51,27,30.01,29.85,29.74,10,9,5,33,16,44,0.01,4,Snow,271
2014-1-26,55,37,18,33,24,6,65,44,22,29.96,29.73,29.60,10,10,10,35,10,46,0.00,3,,211
2014-1-27,36,22,7,23,0,-8,69,53,37,30.52,30.30,29.87,10,10,10,28,13,39,0.00,3,,338
2014-1-28,17,10,3,-2,-6,-9,69,51,33,30.57,30.49,30.43,10,10,10,12,5,16,0.00,0,,350
2014-1-29,29,16,3,3,0,-3,79,54,29,30.45,30.39,30.30,10,10,10,17,6,22,0.00,0,,199
2014-1-30,41,29,17,9,5,2,54,38,22,30.28,30.11,29.97,10,10,10,24,11,30,0.00,0,,190
2014-1-31,45,35,25,35,23,8,100,64,27,30.14,30.07,30.02,10,7,2,13,5,18,0.02,5,Rain,119